International Virtual Aviation Organisation

Russian Federation and Kazakhstan MCD

 

Карточка аэропорта UUWW

Внимание!
Информация на этой странице в стадии наполнения.
Если вы не увидели какой-то информации, или заметили неточность - пожалуйста сообщите нам!
Спасибо!
Команда RU-STAFF
Название аэропортаВнуково
Название аэропорта (англ.)Vnukovo
Превышение686 ft. (209.1 m.)
Координаты55°35.952', 37°16.386'
Высота перехода1200 m
Эшелон переходаBy ATC
Коды ответчика2101-2117
Зона ОрВДМосква РПИ (UUWV)
Данные METARUUWW 271700Z 19003MPS 4500 -SN BKN007 OVC046 00/M01 Q1010 R24/520242 NOSIG
Проноз погоды (TAF)UUWW 271359Z 2715/2815 17003G08MPS 3100 -SN BR OVC004 TX01/2812Z TNM01/2721Z TEMPO 2715/2719 1000 -FZDZ BR OVC002 TEMPO 2719/2807 1500 SHSN BKN002 BKN015CB BECMG 2807/2809 6000 NSW FEW004 BKN008
NOTAMshow/hide NOTAM
AWOS   TABLE

Информация о ВПП

ВПП Длина ВПП (м.) Покрытие Курс ВПП Частота ILS
013060Асфальтобетон13111.7
193060Асфальтобетон193111.5
063500Цементобетон58108.9
243500Цементобетон238111.1

Диспетчерские позиции

Позывной Наименование органа УВД Частота
UUWW_TWRВнуково-Вышка118.300
UUWW_GNDВнуково-Руление120.450
UUWW_GNDВнуково-Руление121.700
UUWW_APPВнуково-Подход122.300
UUWW_R_APPВнуково-Круг126.000
UUWW_DELВнуково-Деливери129.700
UUWW_DELВнуково-Деливери131.800



Спутниковое изображение